sensor_id;sensor_type;location;lat;lon;timestamp;P1;durP1;ratioP1;P2;durP2;ratioP2
6354;SDS011;3210;48.708;9.030;2023-04-15T00:02:12;4.20;;;1.83;;
6354;SDS011;3210;48.708;9.030;2023-04-15T00:04:40;3.37;;;2.23;;
6354;SDS011;3210;48.708;9.030;2023-04-15T00:07:07;1.70;;;1.07;;
6354;SDS011;3210;48.708;9.030;2023-04-15T00:09:35;3.73;;;1.50;;
6354;SDS011;3210;48.708;9.030;2023-04-15T00:12:02;5.97;;;1.07;;
6354;SDS011;3210;48.708;9.030;2023-04-15T00:14:29;1.43;;;1.13;;
6354;SDS011;3210;48.708;9.030;2023-04-15T00:16:56;1.70;;;1.07;;
6354;SDS011;3210;48.708;9.030;2023-04-15T00:19:22;3.93;;;1.53;;
6354;SDS011;3210;48.708;9.030;2023-04-15T00:21:49;5.27;;;1.57;;
6354;SDS011;3210;48.708;9.030;2023-04-15T00:24:16;4.43;;;1.27;;
6354;SDS011;3210;48.708;9.030;2023-04-15T00:26:44;3.23;;;1.90;;
6354;SDS011;3210;48.708;9.030;2023-04-15T00:29:11;3.10;;;1.00;;
6354;SDS011;3210;48.708;9.030;2023-04-15T00:31:39;3.43;;;1.40;;
6354;SDS011;3210;48.708;9.030;2023-04-15T00:34:06;3.57;;;1.40;;
6354;SDS011;3210;48.708;9.030;2023-04-15T00:36:33;1.63;;;1.53;;
6354;SDS011;3210;48.708;9.030;2023-04-15T00:39:00;2.97;;;1.60;;
6354;SDS011;3210;48.708;9.030;2023-04-15T00:41:27;2.33;;;1.43;;
6354;SDS011;3210;48.708;9.030;2023-04-15T00:43:56;3.70;;;2.00;;
6354;SDS011;3210;48.708;9.030;2023-04-15T00:46:23;1.20;;;1.10;;
6354;SDS011;3210;48.708;9.030;2023-04-15T00:48:51;4.07;;;1.50;;
6354;SDS011;3210;48.708;9.030;2023-04-15T00:51:19;1.43;;;1.17;;
6354;SDS011;3210;48.708;9.030;2023-04-15T00:53:46;4.63;;;1.40;;
6354;SDS011;3210;48.708;9.030;2023-04-15T00:56:13;7.70;;;1.37;;
6354;SDS011;3210;48.708;9.030;2023-04-15T00:58:40;2.77;;;1.37;;
6354;SDS011;3210;48.708;9.030;2023-04-15T01:01:08;3.70;;;1.50;;
6354;SDS011;3210;48.708;9.030;2023-04-15T01:03:35;5.70;;;1.60;;
6354;SDS011;3210;48.708;9.030;2023-04-15T01:06:02;5.47;;;1.50;;
6354;SDS011;3210;48.708;9.030;2023-04-15T01:08:29;2.40;;;1.60;;
6354;SDS011;3210;48.708;9.030;2023-04-15T01:10:56;3.23;;;1.43;;
6354;SDS011;3210;48.708;9.030;2023-04-15T01:13:27;3.30;;;1.40;;
6354;SDS011;3210;48.708;9.030;2023-04-15T01:15:55;6.60;;;1.43;;
6354;SDS011;3210;48.708;9.030;2023-04-15T01:18:23;1.30;;;1.20;;
6354;SDS011;3210;48.708;9.030;2023-04-15T01:20:51;1.90;;;1.13;;
6354;SDS011;3210;48.708;9.030;2023-04-15T01:23:18;4.70;;;1.27;;
6354;SDS011;3210;48.708;9.030;2023-04-15T01:25:47;1.57;;;1.30;;
6354;SDS011;3210;48.708;9.030;2023-04-15T01:28:14;1.90;;;1.37;;
6354;SDS011;3210;48.708;9.030;2023-04-15T01:30:41;6.37;;;1.50;;
6354;SDS011;3210;48.708;9.030;2023-04-15T01:33:08;2.17;;;1.30;;
6354;SDS011;3210;48.708;9.030;2023-04-15T01:35:35;2.60;;;1.80;;
6354;SDS011;3210;48.708;9.030;2023-04-15T01:38:04;4.33;;;1.90;;
6354;SDS011;3210;48.708;9.030;2023-04-15T01:40:32;1.53;;;1.37;;
6354;SDS011;3210;48.708;9.030;2023-04-15T01:43:00;6.10;;;1.47;;
6354;SDS011;3210;48.708;9.030;2023-04-15T01:45:27;2.07;;;1.10;;
6354;SDS011;3210;48.708;9.030;2023-04-15T01:47:55;1.97;;;1.40;;
6354;SDS011;3210;48.708;9.030;2023-04-15T01:50:21;4.30;;;2.17;;
6354;SDS011;3210;48.708;9.030;2023-04-15T01:52:50;2.13;;;1.37;;
6354;SDS011;3210;48.708;9.030;2023-04-15T01:55:16;2.47;;;1.40;;
6354;SDS011;3210;48.708;9.030;2023-04-15T01:57:43;2.13;;;1.40;;
6354;SDS011;3210;48.708;9.030;2023-04-15T02:00:12;8.27;;;2.00;;
6354;SDS011;3210;48.708;9.030;2023-04-15T02:02:39;4.30;;;2.00;;
6354;SDS011;3210;48.708;9.030;2023-04-15T02:05:06;6.20;;;1.17;;
6354;SDS011;3210;48.708;9.030;2023-04-15T02:07:33;4.03;;;1.80;;
6354;SDS011;3210;48.708;9.030;2023-04-15T02:10:00;3.00;;;1.90;;
6354;SDS011;3210;48.708;9.030;2023-04-15T02:12:28;8.63;;;2.47;;
6354;SDS011;3210;48.708;9.030;2023-04-15T02:14:54;3.30;;;1.53;;
6354;SDS011;3210;48.708;9.030;2023-04-15T02:17:22;3.00;;;1.73;;
6354;SDS011;3210;48.708;9.030;2023-04-15T02:19:49;3.23;;;1.60;;
6354;SDS011;3210;48.708;9.030;2023-04-15T02:22:16;4.13;;;1.30;;
6354;SDS011;3210;48.708;9.030;2023-04-15T02:24:43;3.07;;;1.33;;
6354;SDS011;3210;48.708;9.030;2023-04-15T02:27:14;1.33;;;1.23;;
6354;SDS011;3210;48.708;9.030;2023-04-15T02:29:44;1.80;;;1.57;;
6354;SDS011;3210;48.708;9.030;2023-04-15T02:32:11;3.93;;;1.50;;
6354;SDS011;3210;48.708;9.030;2023-04-15T02:34:40;1.97;;;1.30;;
6354;SDS011;3210;48.708;9.030;2023-04-15T02:37:07;4.50;;;1.80;;
6354;SDS011;3210;48.708;9.030;2023-04-15T02:39:34;6.10;;;1.60;;
6354;SDS011;3210;48.708;9.030;2023-04-15T02:42:01;4.73;;;1.80;;
6354;SDS011;3210;48.708;9.030;2023-04-15T02:44:29;3.60;;;1.90;;
6354;SDS011;3210;48.708;9.030;2023-04-15T02:46:56;7.70;;;2.53;;
6354;SDS011;3210;48.708;9.030;2023-04-15T02:49:23;10.30;;;2.70;;
6354;SDS011;3210;48.708;9.030;2023-04-15T02:51:51;4.10;;;2.00;;
6354;SDS011;3210;48.708;9.030;2023-04-15T02:54:19;4.47;;;1.97;;
6354;SDS011;3210;48.708;9.030;2023-04-15T02:56:47;3.00;;;1.60;;
6354;SDS011;3210;48.708;9.030;2023-04-15T02:59:14;1.77;;;1.50;;
6354;SDS011;3210;48.708;9.030;2023-04-15T03:01:40;3.40;;;2.10;;
6354;SDS011;3210;48.708;9.030;2023-04-15T03:04:07;10.20;;;2.50;;
6354;SDS011;3210;48.708;9.030;2023-04-15T03:06:34;3.97;;;2.23;;
6354;SDS011;3210;48.708;9.030;2023-04-15T03:09:02;2.03;;;1.57;;
6354;SDS011;3210;48.708;9.030;2023-04-15T03:11:29;6.23;;;1.80;;
6354;SDS011;3210;48.708;9.030;2023-04-15T03:13:56;2.13;;;1.60;;
6354;SDS011;3210;48.708;9.030;2023-04-15T03:16:23;3.13;;;1.60;;
6354;SDS011;3210;48.708;9.030;2023-04-15T03:18:50;3.80;;;2.70;;
6354;SDS011;3210;48.708;9.030;2023-04-15T03:21:17;5.87;;;2.17;;
6354;SDS011;3210;48.708;9.030;2023-04-15T03:23:44;4.13;;;1.90;;
6354;SDS011;3210;48.708;9.030;2023-04-15T03:26:23;5.40;;;2.00;;
6354;SDS011;3210;48.708;9.030;2023-04-15T03:28:52;7.83;;;1.93;;
6354;SDS011;3210;48.708;9.030;2023-04-15T03:31:19;1.50;;;1.40;;
6354;SDS011;3210;48.708;9.030;2023-04-15T03:33:46;3.33;;;1.53;;
6354;SDS011;3210;48.708;9.030;2023-04-15T03:36:13;2.33;;;1.80;;
6354;SDS011;3210;48.708;9.030;2023-04-15T03:38:40;4.20;;;1.80;;
6354;SDS011;3210;48.708;9.030;2023-04-15T03:41:07;3.30;;;2.20;;
6354;SDS011;3210;48.708;9.030;2023-04-15T03:43:35;1.53;;;1.40;;
6354;SDS011;3210;48.708;9.030;2023-04-15T03:46:02;3.50;;;1.60;;
6354;SDS011;3210;48.708;9.030;2023-04-15T03:48:29;12.93;;;2.10;;
6354;SDS011;3210;48.708;9.030;2023-04-15T03:50:56;3.20;;;1.50;;
6354;SDS011;3210;48.708;9.030;2023-04-15T03:53:23;7.53;;;2.00;;
6354;SDS011;3210;48.708;9.030;2023-04-15T03:55:49;5.00;;;1.87;;
6354;SDS011;3210;48.708;9.030;2023-04-15T03:58:16;5.20;;;1.83;;
6354;SDS011;3210;48.708;9.030;2023-04-15T04:00:44;2.17;;;1.60;;
6354;SDS011;3210;48.708;9.030;2023-04-15T04:03:11;6.90;;;1.80;;
6354;SDS011;3210;48.708;9.030;2023-04-15T04:05:38;2.03;;;1.80;;
6354;SDS011;3210;48.708;9.030;2023-04-15T04:08:05;7.23;;;1.90;;
6354;SDS011;3210;48.708;9.030;2023-04-15T04:10:32;4.00;;;1.50;;
6354;SDS011;3210;48.708;9.030;2023-04-15T04:12:59;3.23;;;1.60;;
6354;SDS011;3210;48.708;9.030;2023-04-15T04:15:26;3.90;;;1.67;;
6354;SDS011;3210;48.708;9.030;2023-04-15T04:17:54;3.63;;;1.70;;
6354;SDS011;3210;48.708;9.030;2023-04-15T04:20:21;4.47;;;1.40;;
6354;SDS011;3210;48.708;9.030;2023-04-15T04:22:47;5.33;;;2.10;;
6354;SDS011;3210;48.708;9.030;2023-04-15T04:25:15;9.87;;;2.33;;
6354;SDS011;3210;48.708;9.030;2023-04-15T04:27:41;1.77;;;1.63;;
6354;SDS011;3210;48.708;9.030;2023-04-15T04:30:09;3.40;;;2.40;;
6354;SDS011;3210;48.708;9.030;2023-04-15T04:32:36;5.50;;;2.80;;
6354;SDS011;3210;48.708;9.030;2023-04-15T04:35:05;3.50;;;1.97;;
6354;SDS011;3210;48.708;9.030;2023-04-15T04:37:32;3.30;;;2.60;;
6354;SDS011;3210;48.708;9.030;2023-04-15T04:39:59;5.77;;;2.00;;
6354;SDS011;3210;48.708;9.030;2023-04-15T04:42:25;2.70;;;1.50;;
6354;SDS011;3210;48.708;9.030;2023-04-15T04:44:52;1.57;;;1.43;;
6354;SDS011;3210;48.708;9.030;2023-04-15T04:47:19;2.53;;;1.57;;
6354;SDS011;3210;48.708;9.030;2023-04-15T04:49:46;2.70;;;1.83;;
6354;SDS011;3210;48.708;9.030;2023-04-15T04:52:14;10.50;;;2.00;;
6354;SDS011;3210;48.708;9.030;2023-04-15T04:54:41;4.17;;;1.97;;
6354;SDS011;3210;48.708;9.030;2023-04-15T04:57:08;2.47;;;1.73;;
6354;SDS011;3210;48.708;9.030;2023-04-15T04:59:34;2.43;;;1.80;;
6354;SDS011;3210;48.708;9.030;2023-04-15T05:02:02;5.20;;;2.33;;
6354;SDS011;3210;48.708;9.030;2023-04-15T05:04:28;4.80;;;2.43;;
6354;SDS011;3210;48.708;9.030;2023-04-15T05:06:56;5.33;;;1.87;;
6354;SDS011;3210;48.708;9.030;2023-04-15T05:09:24;2.93;;;2.60;;
6354;SDS011;3210;48.708;9.030;2023-04-15T05:11:51;2.90;;;2.00;;
6354;SDS011;3210;48.708;9.030;2023-04-15T05:14:18;4.13;;;2.33;;
6354;SDS011;3210;48.708;9.030;2023-04-15T05:16:44;3.33;;;1.87;;
6354;SDS011;3210;48.708;9.030;2023-04-15T05:19:11;2.43;;;1.93;;
6354;SDS011;3210;48.708;9.030;2023-04-15T05:21:38;2.80;;;1.70;;
6354;SDS011;3210;48.708;9.030;2023-04-15T05:24:05;3.00;;;2.30;;
6354;SDS011;3210;48.708;9.030;2023-04-15T05:26:33;2.47;;;2.20;;
6354;SDS011;3210;48.708;9.030;2023-04-15T05:29:00;7.13;;;2.30;;
6354;SDS011;3210;48.708;9.030;2023-04-15T05:31:26;7.63;;;2.47;;
6354;SDS011;3210;48.708;9.030;2023-04-15T05:33:53;3.63;;;2.20;;
6354;SDS011;3210;48.708;9.030;2023-04-15T05:36:20;3.83;;;2.70;;
6354;SDS011;3210;48.708;9.030;2023-04-15T05:38:47;4.93;;;1.93;;
6354;SDS011;3210;48.708;9.030;2023-04-15T05:41:14;3.40;;;1.83;;
6354;SDS011;3210;48.708;9.030;2023-04-15T05:43:42;4.83;;;2.10;;
6354;SDS011;3210;48.708;9.030;2023-04-15T05:46:09;2.77;;;1.67;;
6354;SDS011;3210;48.708;9.030;2023-04-15T05:48:36;4.50;;;2.10;;
6354;SDS011;3210;48.708;9.030;2023-04-15T05:51:03;4.07;;;2.10;;
6354;SDS011;3210;48.708;9.030;2023-04-15T05:53:30;5.00;;;1.73;;
6354;SDS011;3210;48.708;9.030;2023-04-15T05:55:57;3.93;;;2.40;;
6354;SDS011;3210;48.708;9.030;2023-04-15T05:58:24;7.60;;;2.30;;
6354;SDS011;3210;48.708;9.030;2023-04-15T06:00:52;4.40;;;1.90;;
6354;SDS011;3210;48.708;9.030;2023-04-15T06:03:19;3.87;;;1.97;;
6354;SDS011;3210;48.708;9.030;2023-04-15T06:05:46;2.50;;;2.30;;
6354;SDS011;3210;48.708;9.030;2023-04-15T06:08:13;4.47;;;2.33;;
6354;SDS011;3210;48.708;9.030;2023-04-15T06:10:41;9.03;;;2.70;;
6354;SDS011;3210;48.708;9.030;2023-04-15T06:13:08;6.10;;;2.90;;
6354;SDS011;3210;48.708;9.030;2023-04-15T06:15:34;4.63;;;2.30;;
6354;SDS011;3210;48.708;9.030;2023-04-15T06:18:03;2.73;;;2.17;;
6354;SDS011;3210;48.708;9.030;2023-04-15T06:20:29;2.40;;;2.20;;
6354;SDS011;3210;48.708;9.030;2023-04-15T06:22:56;5.97;;;2.43;;
6354;SDS011;3210;48.708;9.030;2023-04-15T06:25:23;4.67;;;2.67;;
6354;SDS011;3210;48.708;9.030;2023-04-15T06:27:50;5.50;;;2.03;;
6354;SDS011;3210;48.708;9.030;2023-04-15T06:30:16;5.40;;;2.97;;
6354;SDS011;3210;48.708;9.030;2023-04-15T06:32:43;7.13;;;3.07;;
6354;SDS011;3210;48.708;9.030;2023-04-15T06:35:11;4.43;;;2.90;;
6354;SDS011;3210;48.708;9.030;2023-04-15T06:37:39;10.80;;;2.63;;
6354;SDS011;3210;48.708;9.030;2023-04-15T06:40:06;6.93;;;3.10;;
6354;SDS011;3210;48.708;9.030;2023-04-15T06:42:34;4.30;;;2.80;;
6354;SDS011;3210;48.708;9.030;2023-04-15T06:45:02;4.73;;;2.30;;
6354;SDS011;3210;48.708;9.030;2023-04-15T06:47:29;4.07;;;2.93;;
6354;SDS011;3210;48.708;9.030;2023-04-15T06:49:56;8.13;;;2.70;;
6354;SDS011;3210;48.708;9.030;2023-04-15T06:52:24;4.53;;;2.63;;
6354;SDS011;3210;48.708;9.030;2023-04-15T06:54:51;9.80;;;2.73;;
6354;SDS011;3210;48.708;9.030;2023-04-15T06:57:18;2.10;;;1.90;;
6354;SDS011;3210;48.708;9.030;2023-04-15T06:59:45;5.40;;;2.73;;
6354;SDS011;3210;48.708;9.030;2023-04-15T07:02:12;9.93;;;3.00;;
6354;SDS011;3210;48.708;9.030;2023-04-15T07:04:39;6.13;;;2.23;;
6354;SDS011;3210;48.708;9.030;2023-04-15T07:07:05;7.03;;;3.00;;
6354;SDS011;3210;48.708;9.030;2023-04-15T07:09:34;8.20;;;2.93;;
6354;SDS011;3210;48.708;9.030;2023-04-15T07:12:01;3.50;;;2.30;;
6354;SDS011;3210;48.708;9.030;2023-04-15T07:14:28;3.67;;;2.93;;
6354;SDS011;3210;48.708;9.030;2023-04-15T07:16:55;7.37;;;3.17;;
6354;SDS011;3210;48.708;9.030;2023-04-15T07:19:22;15.43;;;5.40;;
6354;SDS011;3210;48.708;9.030;2023-04-15T07:21:49;5.67;;;3.17;;
6354;SDS011;3210;48.708;9.030;2023-04-15T07:24:15;8.40;;;2.97;;
6354;SDS011;3210;48.708;9.030;2023-04-15T07:26:45;6.40;;;3.10;;
6354;SDS011;3210;48.708;9.030;2023-04-15T07:29:12;3.83;;;2.27;;
6354;SDS011;3210;48.708;9.030;2023-04-15T07:31:39;7.27;;;3.10;;
6354;SDS011;3210;48.708;9.030;2023-04-15T07:34:06;6.23;;;3.10;;
6354;SDS011;3210;48.708;9.030;2023-04-15T07:36:33;8.33;;;2.87;;
6354;SDS011;3210;48.708;9.030;2023-04-15T07:39:00;3.43;;;2.47;;
6354;SDS011;3210;48.708;9.030;2023-04-15T07:41:28;4.17;;;3.07;;
6354;SDS011;3210;48.708;9.030;2023-04-15T07:43:56;4.40;;;2.70;;
6354;SDS011;3210;48.708;9.030;2023-04-15T07:46:25;6.27;;;3.40;;
6354;SDS011;3210;48.708;9.030;2023-04-15T07:48:52;10.10;;;3.77;;
6354;SDS011;3210;48.708;9.030;2023-04-15T07:51:19;8.87;;;3.70;;
6354;SDS011;3210;48.708;9.030;2023-04-15T07:53:46;7.27;;;3.43;;
6354;SDS011;3210;48.708;9.030;2023-04-15T07:56:13;4.10;;;3.40;;
6354;SDS011;3210;48.708;9.030;2023-04-15T07:58:40;7.43;;;3.07;;
6354;SDS011;3210;48.708;9.030;2023-04-15T08:01:08;5.73;;;2.43;;
6354;SDS011;3210;48.708;9.030;2023-04-15T08:03:35;3.53;;;2.20;;
6354;SDS011;3210;48.708;9.030;2023-04-15T08:06:02;4.13;;;2.17;;
6354;SDS011;3210;48.708;9.030;2023-04-15T08:08:29;5.37;;;2.50;;
6354;SDS011;3210;48.708;9.030;2023-04-15T08:10:56;2.60;;;2.00;;
6354;SDS011;3210;48.708;9.030;2023-04-15T08:13:24;5.60;;;2.33;;
6354;SDS011;3210;48.708;9.030;2023-04-15T08:15:52;5.83;;;2.23;;
6354;SDS011;3210;48.708;9.030;2023-04-15T08:18:42;3.87;;;2.17;;
6354;SDS011;3210;48.708;9.030;2023-04-15T08:21:09;5.00;;;1.67;;
6354;SDS011;3210;48.708;9.030;2023-04-15T08:23:36;7.63;;;2.30;;
6354;SDS011;3210;48.708;9.030;2023-04-15T08:26:03;7.30;;;1.57;;
6354;SDS011;3210;48.708;9.030;2023-04-15T08:28:30;7.50;;;2.33;;
6354;SDS011;3210;48.708;9.030;2023-04-15T08:30:57;1.80;;;1.40;;
6354;SDS011;3210;48.708;9.030;2023-04-15T08:33:25;2.87;;;1.50;;
6354;SDS011;3210;48.708;9.030;2023-04-15T08:35:52;2.53;;;1.00;;
6354;SDS011;3210;48.708;9.030;2023-04-15T08:38:19;3.60;;;1.53;;
6354;SDS011;3210;48.708;9.030;2023-04-15T08:40:46;3.33;;;1.30;;
6354;SDS011;3210;48.708;9.030;2023-04-15T08:43:14;1.63;;;1.30;;
6354;SDS011;3210;48.708;9.030;2023-04-15T08:45:46;2.37;;;1.23;;
6354;SDS011;3210;48.708;9.030;2023-04-15T08:48:15;4.70;;;1.27;;
6354;SDS011;3210;48.708;9.030;2023-04-15T08:50:44;4.30;;;1.07;;
6354;SDS011;3210;48.708;9.030;2023-04-15T08:53:11;3.03;;;1.10;;
6354;SDS011;3210;48.708;9.030;2023-04-15T08:55:41;2.73;;;1.10;;
6354;SDS011;3210;48.708;9.030;2023-04-15T08:58:09;1.50;;;1.10;;
6354;SDS011;3210;48.708;9.030;2023-04-15T09:00:37;3.63;;;1.50;;
6354;SDS011;3210;48.708;9.030;2023-04-15T09:03:04;3.03;;;1.50;;
6354;SDS011;3210;48.708;9.030;2023-04-15T09:05:31;5.33;;;1.43;;
6354;SDS011;3210;48.708;9.030;2023-04-15T09:08:00;6.27;;;1.40;;
6354;SDS011;3210;48.708;9.030;2023-04-15T09:10:27;3.37;;;0.93;;
6354;SDS011;3210;48.708;9.030;2023-04-15T09:12:54;2.60;;;1.00;;
6354;SDS011;3210;48.708;9.030;2023-04-15T09:15:22;9.90;;;1.80;;
6354;SDS011;3210;48.708;9.030;2023-04-15T09:17:51;2.97;;;0.97;;
6354;SDS011;3210;48.708;9.030;2023-04-15T09:20:18;1.10;;;0.97;;
6354;SDS011;3210;48.708;9.030;2023-04-15T09:22:46;3.07;;;1.93;;
6354;SDS011;3210;48.708;9.030;2023-04-15T09:25:28;4.10;;;1.20;;
6354;SDS011;3210;48.708;9.030;2023-04-15T09:27:55;3.20;;;1.30;;
6354;SDS011;3210;48.708;9.030;2023-04-15T09:30:23;5.23;;;1.30;;
6354;SDS011;3210;48.708;9.030;2023-04-15T09:32:50;3.37;;;1.00;;
6354;SDS011;3210;48.708;9.030;2023-04-15T09:35:19;5.97;;;2.70;;
6354;SDS011;3210;48.708;9.030;2023-04-15T09:37:47;4.60;;;1.20;;
6354;SDS011;3210;48.708;9.030;2023-04-15T09:40:14;2.17;;;0.90;;
6354;SDS011;3210;48.708;9.030;2023-04-15T09:42:58;1.20;;;1.10;;
6354;SDS011;3210;48.708;9.030;2023-04-15T09:45:26;2.80;;;1.00;;
6354;SDS011;3210;48.708;9.030;2023-04-15T09:47:53;4.73;;;2.00;;
6354;SDS011;3210;48.708;9.030;2023-04-15T09:50:21;2.07;;;1.30;;
6354;SDS011;3210;48.708;9.030;2023-04-15T09:52:47;3.23;;;1.60;;
6354;SDS011;3210;48.708;9.030;2023-04-15T09:55:16;5.37;;;1.67;;
6354;SDS011;3210;48.708;9.030;2023-04-15T09:57:45;3.53;;;1.30;;
6354;SDS011;3210;48.708;9.030;2023-04-15T10:00:12;2.30;;;1.43;;
6354;SDS011;3210;48.708;9.030;2023-04-15T10:02:40;6.77;;;1.10;;
6354;SDS011;3210;48.708;9.030;2023-04-15T10:05:16;4.53;;;2.50;;
6354;SDS011;3210;48.708;9.030;2023-04-15T10:07:43;2.50;;;1.00;;
6354;SDS011;3210;48.708;9.030;2023-04-15T10:10:11;3.80;;;1.37;;
6354;SDS011;3210;48.708;9.030;2023-04-15T10:12:38;5.90;;;1.67;;
6354;SDS011;3210;48.708;9.030;2023-04-15T10:15:10;2.97;;;1.10;;
6354;SDS011;3210;48.708;9.030;2023-04-15T10:17:42;4.90;;;1.50;;
6354;SDS011;3210;48.708;9.030;2023-04-15T10:20:09;3.47;;;1.30;;
6354;SDS011;3210;48.708;9.030;2023-04-15T10:22:38;2.70;;;1.53;;
6354;SDS011;3210;48.708;9.030;2023-04-15T10:25:07;3.77;;;0.93;;
6354;SDS011;3210;48.708;9.030;2023-04-15T10:27:36;3.90;;;1.00;;
6354;SDS011;3210;48.708;9.030;2023-04-15T10:30:05;1.70;;;1.10;;
6354;SDS011;3210;48.708;9.030;2023-04-15T10:32:37;2.93;;;1.33;;
6354;SDS011;3210;48.708;9.030;2023-04-15T10:35:04;2.70;;;1.53;;
6354;SDS011;3210;48.708;9.030;2023-04-15T10:37:33;2.23;;;1.37;;
6354;SDS011;3210;48.708;9.030;2023-04-15T10:40:10;4.00;;;2.10;;
6354;SDS011;3210;48.708;9.030;2023-04-15T10:42:51;3.30;;;1.20;;
6354;SDS011;3210;48.708;9.030;2023-04-15T10:45:18;5.07;;;1.40;;
6354;SDS011;3210;48.708;9.030;2023-04-15T10:47:46;3.13;;;1.83;;
6354;SDS011;3210;48.708;9.030;2023-04-15T10:50:17;4.03;;;2.20;;
6354;SDS011;3210;48.708;9.030;2023-04-15T10:52:45;5.47;;;2.03;;
6354;SDS011;3210;48.708;9.030;2023-04-15T10:55:17;6.43;;;2.50;;
6354;SDS011;3210;48.708;9.030;2023-04-15T10:57:48;4.33;;;2.30;;
6354;SDS011;3210;48.708;9.030;2023-04-15T11:00:18;5.70;;;2.23;;
6354;SDS011;3210;48.708;9.030;2023-04-15T11:02:47;3.10;;;2.30;;
6354;SDS011;3210;48.708;9.030;2023-04-15T11:05:18;4.17;;;2.23;;
6354;SDS011;3210;48.708;9.030;2023-04-15T11:07:48;3.53;;;2.30;;
6354;SDS011;3210;48.708;9.030;2023-04-15T11:13:20;5.63;;;2.30;;
6354;SDS011;3210;48.708;9.030;2023-04-15T11:15:54;6.67;;;2.60;;
6354;SDS011;3210;48.708;9.030;2023-04-15T11:18:35;9.53;;;2.70;;
6354;SDS011;3210;48.708;9.030;2023-04-15T11:21:03;4.40;;;2.30;;
6354;SDS011;3210;48.708;9.030;2023-04-15T11:23:32;10.87;;;1.97;;
6354;SDS011;3210;48.708;9.030;2023-04-15T11:26:03;2.70;;;1.70;;
6354;SDS011;3210;48.708;9.030;2023-04-15T11:28:34;3.53;;;1.50;;
6354;SDS011;3210;48.708;9.030;2023-04-15T11:31:05;5.00;;;1.90;;
6354;SDS011;3210;48.708;9.030;2023-04-15T11:33:43;5.10;;;1.70;;
6354;SDS011;3210;48.708;9.030;2023-04-15T11:36:11;3.47;;;1.83;;
6354;SDS011;3210;48.708;9.030;2023-04-15T11:38:41;5.23;;;2.43;;
6354;SDS011;3210;48.708;9.030;2023-04-15T11:41:08;6.20;;;1.60;;
6354;SDS011;3210;48.708;9.030;2023-04-15T11:43:35;3.20;;;2.00;;
6354;SDS011;3210;48.708;9.030;2023-04-15T11:46:02;6.47;;;1.70;;
6354;SDS011;3210;48.708;9.030;2023-04-15T11:48:29;1.23;;;0.93;;
6354;SDS011;3210;48.708;9.030;2023-04-15T11:50:59;4.67;;;1.23;;
6354;SDS011;3210;48.708;9.030;2023-04-15T11:53:37;9.30;;;1.70;;
6354;SDS011;3210;48.708;9.030;2023-04-15T11:56:08;3.60;;;1.90;;
6354;SDS011;3210;48.708;9.030;2023-04-15T11:58:36;4.73;;;1.83;;
6354;SDS011;3210;48.708;9.030;2023-04-15T12:01:04;1.70;;;1.30;;
6354;SDS011;3210;48.708;9.030;2023-04-15T12:03:35;10.13;;;2.13;;
6354;SDS011;3210;48.708;9.030;2023-04-15T12:06:08;3.83;;;1.40;;
6354;SDS011;3210;48.708;9.030;2023-04-15T12:08:54;2.53;;;1.47;;
6354;SDS011;3210;48.708;9.030;2023-04-15T12:11:29;7.97;;;2.47;;
6354;SDS011;3210;48.708;9.030;2023-04-15T12:14:08;6.70;;;1.93;;
6354;SDS011;3210;48.708;9.030;2023-04-15T12:16:37;1.67;;;1.57;;
6354;SDS011;3210;48.708;9.030;2023-04-15T12:19:05;4.23;;;2.50;;
6354;SDS011;3210;48.708;9.030;2023-04-15T12:21:37;4.67;;;1.80;;
6354;SDS011;3210;48.708;9.030;2023-04-15T12:24:05;4.33;;;2.17;;
6354;SDS011;3210;48.708;9.030;2023-04-15T12:26:34;6.00;;;2.20;;
6354;SDS011;3210;48.708;9.030;2023-04-15T12:29:03;5.50;;;2.20;;
6354;SDS011;3210;48.708;9.030;2023-04-15T12:31:31;3.87;;;2.47;;
6354;SDS011;3210;48.708;9.030;2023-04-15T12:33:59;8.60;;;2.60;;
6354;SDS011;3210;48.708;9.030;2023-04-15T12:36:26;4.30;;;2.27;;
6354;SDS011;3210;48.708;9.030;2023-04-15T12:38:55;4.10;;;2.73;;
6354;SDS011;3210;48.708;9.030;2023-04-15T12:41:22;7.07;;;2.90;;
6354;SDS011;3210;48.708;9.030;2023-04-15T12:43:49;7.17;;;2.10;;
6354;SDS011;3210;48.708;9.030;2023-04-15T12:46:16;4.13;;;3.10;;
6354;SDS011;3210;48.708;9.030;2023-04-15T12:48:42;5.67;;;2.13;;
6354;SDS011;3210;48.708;9.030;2023-04-15T12:51:09;4.03;;;2.30;;
6354;SDS011;3210;48.708;9.030;2023-04-15T12:53:36;7.10;;;3.07;;
6354;SDS011;3210;48.708;9.030;2023-04-15T12:56:04;6.57;;;2.40;;
6354;SDS011;3210;48.708;9.030;2023-04-15T12:58:31;2.77;;;2.47;;
6354;SDS011;3210;48.708;9.030;2023-04-15T13:00:58;2.43;;;2.20;;
6354;SDS011;3210;48.708;9.030;2023-04-15T13:03:25;3.57;;;2.27;;
6354;SDS011;3210;48.708;9.030;2023-04-15T13:05:55;2.70;;;1.80;;
6354;SDS011;3210;48.708;9.030;2023-04-15T13:08:22;7.17;;;2.40;;
6354;SDS011;3210;48.708;9.030;2023-04-15T13:10:49;2.83;;;2.03;;
6354;SDS011;3210;48.708;9.030;2023-04-15T13:13:17;7.60;;;1.93;;
6354;SDS011;3210;48.708;9.030;2023-04-15T13:15:44;4.90;;;2.53;;
6354;SDS011;3210;48.708;9.030;2023-04-15T13:18:10;13.67;;;2.33;;
6354;SDS011;3210;48.708;9.030;2023-04-15T13:20:37;6.37;;;2.90;;
6354;SDS011;3210;48.708;9.030;2023-04-15T13:23:07;3.60;;;2.07;;
6354;SDS011;3210;48.708;9.030;2023-04-15T13:25:34;4.20;;;2.00;;
6354;SDS011;3210;48.708;9.030;2023-04-15T13:28:03;4.83;;;2.30;;
6354;SDS011;3210;48.708;9.030;2023-04-15T13:30:33;4.03;;;1.83;;
6354;SDS011;3210;48.708;9.030;2023-04-15T13:33:00;2.47;;;1.93;;
6354;SDS011;3210;48.708;9.030;2023-04-15T13:35:26;2.90;;;2.00;;
6354;SDS011;3210;48.708;9.030;2023-04-15T13:37:53;3.07;;;1.83;;
6354;SDS011;3210;48.708;9.030;2023-04-15T13:40:20;3.23;;;2.20;;
6354;SDS011;3210;48.708;9.030;2023-04-15T13:42:47;9.90;;;3.20;;
6354;SDS011;3210;48.708;9.030;2023-04-15T13:45:14;4.00;;;2.23;;
6354;SDS011;3210;48.708;9.030;2023-04-15T13:47:42;4.27;;;2.33;;
6354;SDS011;3210;48.708;9.030;2023-04-15T13:50:09;3.97;;;1.70;;
6354;SDS011;3210;48.708;9.030;2023-04-15T13:52:36;2.57;;;1.83;;
6354;SDS011;3210;48.708;9.030;2023-04-15T13:55:03;2.77;;;2.30;;
6354;SDS011;3210;48.708;9.030;2023-04-15T13:57:30;2.93;;;1.70;;
6354;SDS011;3210;48.708;9.030;2023-04-15T13:59:57;5.73;;;1.93;;
6354;SDS011;3210;48.708;9.030;2023-04-15T14:02:24;2.00;;;1.80;;
6354;SDS011;3210;48.708;9.030;2023-04-15T14:04:52;9.97;;;1.50;;
6354;SDS011;3210;48.708;9.030;2023-04-15T14:07:19;1.70;;;1.60;;
6354;SDS011;3210;48.708;9.030;2023-04-15T14:09:46;3.00;;;1.80;;
6354;SDS011;3210;48.708;9.030;2023-04-15T14:12:13;1.50;;;1.23;;
6354;SDS011;3210;48.708;9.030;2023-04-15T14:14:40;2.57;;;1.37;;
6354;SDS011;3210;48.708;9.030;2023-04-15T14:17:06;1.53;;;0.77;;
6354;SDS011;3210;48.708;9.030;2023-04-15T14:19:33;1.37;;;0.70;;
6354;SDS011;3210;48.708;9.030;2023-04-15T14:22:01;0.80;;;0.70;;
6354;SDS011;3210;48.708;9.030;2023-04-15T14:24:28;2.00;;;1.00;;
6354;SDS011;3210;48.708;9.030;2023-04-15T14:26:55;6.10;;;1.03;;
6354;SDS011;3210;48.708;9.030;2023-04-15T14:29:22;2.13;;;1.20;;
6354;SDS011;3210;48.708;9.030;2023-04-15T14:31:49;1.87;;;1.00;;
6354;SDS011;3210;48.708;9.030;2023-04-15T14:34:16;0.90;;;0.77;;
6354;SDS011;3210;48.708;9.030;2023-04-15T14:36:43;2.73;;;0.87;;
6354;SDS011;3210;48.708;9.030;2023-04-15T14:39:11;1.83;;;0.87;;
6354;SDS011;3210;48.708;9.030;2023-04-15T14:41:39;3.40;;;0.93;;
6354;SDS011;3210;48.708;9.030;2023-04-15T14:44:06;2.93;;;1.30;;
6354;SDS011;3210;48.708;9.030;2023-04-15T14:46:35;1.37;;;1.27;;
6354;SDS011;3210;48.708;9.030;2023-04-15T14:49:02;3.53;;;1.67;;
6354;SDS011;3210;48.708;9.030;2023-04-15T14:51:29;3.10;;;1.17;;
6354;SDS011;3210;48.708;9.030;2023-04-15T14:53:56;1.93;;;1.77;;
6354;SDS011;3210;48.708;9.030;2023-04-15T14:56:24;3.93;;;1.70;;
6354;SDS011;3210;48.708;9.030;2023-04-15T14:58:51;2.30;;;1.40;;
6354;SDS011;3210;48.708;9.030;2023-04-15T15:01:18;4.23;;;1.57;;
6354;SDS011;3210;48.708;9.030;2023-04-15T15:03:45;6.13;;;2.67;;
6354;SDS011;3210;48.708;9.030;2023-04-15T15:06:12;2.10;;;1.63;;
6354;SDS011;3210;48.708;9.030;2023-04-15T15:08:39;4.40;;;2.60;;
6354;SDS011;3210;48.708;9.030;2023-04-15T15:11:06;3.83;;;1.93;;
6354;SDS011;3210;48.708;9.030;2023-04-15T15:13:34;2.90;;;1.70;;
6354;SDS011;3210;48.708;9.030;2023-04-15T15:16:01;2.03;;;1.50;;
6354;SDS011;3210;48.708;9.030;2023-04-15T15:18:28;2.70;;;2.10;;
6354;SDS011;3210;48.708;9.030;2023-04-15T15:20:55;5.00;;;1.93;;
6354;SDS011;3210;48.708;9.030;2023-04-15T15:23:22;5.10;;;2.23;;